sensor_id;sensor_type;location;lat;lon;timestamp;pressure;altitude;pressure_sealevel;temperature;humidity
46347;BME280;32057;47.830;19.046;2023-05-02T00:01:44;100348.97;;;7.82;100.00
46347;BME280;32057;47.830;19.046;2023-05-02T00:04:09;100359.19;;;7.77;100.00
46347;BME280;32057;47.830;19.046;2023-05-02T00:06:35;100353.28;;;7.81;100.00
46347;BME280;32057;47.830;19.046;2023-05-02T00:09:00;100356.00;;;7.86;100.00
46347;BME280;32057;47.830;19.046;2023-05-02T00:11:26;100355.31;;;7.91;100.00
46347;BME280;32057;47.830;19.046;2023-05-02T00:13:54;100351.94;;;7.94;100.00
46347;BME280;32057;47.830;19.046;2023-05-02T00:16:19;100345.22;;;8.01;100.00
46347;BME280;32057;47.830;19.046;2023-05-02T00:18:45;100353.16;;;8.05;100.00
46347;BME280;32057;47.830;19.046;2023-05-02T00:21:11;100348.97;;;8.09;100.00
46347;BME280;32057;47.830;19.046;2023-05-02T00:23:37;100355.88;;;8.10;100.00
46347;BME280;32057;47.830;19.046;2023-05-02T00:26:02;100348.34;;;8.17;100.00
46347;BME280;32057;47.830;19.046;2023-05-02T00:28:27;100347.38;;;8.14;100.00
46347;BME280;32057;47.830;19.046;2023-05-02T00:30:53;100352.38;;;8.08;100.00
46347;BME280;32057;47.830;19.046;2023-05-02T00:33:18;100345.84;;;7.92;100.00
46347;BME280;32057;47.830;19.046;2023-05-02T00:35:44;100346.38;;;7.82;100.00
46347;BME280;32057;47.830;19.046;2023-05-02T00:38:10;100349.78;;;7.81;100.00
46347;BME280;32057;47.830;19.046;2023-05-02T00:40:46;100349.56;;;7.73;100.00
46347;BME280;32057;47.830;19.046;2023-05-02T00:43:13;100342.66;;;7.73;100.00
46347;BME280;32057;47.830;19.046;2023-05-02T00:45:41;100348.78;;;7.75;100.00
46347;BME280;32057;47.830;19.046;2023-05-02T00:48:08;100344.53;;;7.77;100.00
46347;BME280;32057;47.830;19.046;2023-05-02T00:50:38;100348.97;;;7.82;100.00
46347;BME280;32057;47.830;19.046;2023-05-02T00:53:05;100341.44;;;7.89;100.00
46347;BME280;32057;47.830;19.046;2023-05-02T00:55:33;100343.16;;;7.89;100.00
46347;BME280;32057;47.830;19.046;2023-05-02T00:58:05;100343.25;;;7.92;100.00
46347;BME280;32057;47.830;19.046;2023-05-02T01:03:59;100346.75;;;7.94;100.00
46347;BME280;32057;47.830;19.046;2023-05-02T01:09:25;100358.59;;;8.14;100.00
46347;BME280;32057;47.830;19.046;2023-05-02T01:14:20;100359.81;;;8.26;100.00
46347;BME280;32057;47.830;19.046;2023-05-02T01:16:47;100353.78;;;8.25;100.00
46347;BME280;32057;47.830;19.046;2023-05-02T01:19:34;100353.91;;;8.30;100.00
46347;BME280;32057;47.830;19.046;2023-05-02T01:22:03;100343.59;;;8.31;100.00
46347;BME280;32057;47.830;19.046;2023-05-02T01:24:39;100348.84;;;8.34;100.00
46347;BME280;32057;47.830;19.046;2023-05-02T01:27:17;100352.88;;;8.25;100.00
46347;BME280;32057;47.830;19.046;2023-05-02T01:29:49;100350.88;;;8.16;100.00
46347;BME280;32057;47.830;19.046;2023-05-02T01:32:19;100348.53;;;8.24;100.00
46347;BME280;32057;47.830;19.046;2023-05-02T01:34:46;100345.63;;;8.13;100.00
46347;BME280;32057;47.830;19.046;2023-05-02T01:37:14;100348.25;;;8.14;100.00
46347;BME280;32057;47.830;19.046;2023-05-02T01:39:41;100349.09;;;8.13;100.00
46347;BME280;32057;47.830;19.046;2023-05-02T01:42:09;100347.94;;;8.04;100.00
46347;BME280;32057;47.830;19.046;2023-05-02T01:44:36;100342.50;;;7.96;100.00
46347;BME280;32057;47.830;19.046;2023-05-02T01:47:03;100341.19;;;7.82;100.00
46347;BME280;32057;47.830;19.046;2023-05-02T01:49:31;100343.47;;;7.72;100.00
46347;BME280;32057;47.830;19.046;2023-05-02T01:52:01;100339.09;;;7.70;100.00
46347;BME280;32057;47.830;19.046;2023-05-02T01:54:28;100344.28;;;7.70;100.00
46347;BME280;32057;47.830;19.046;2023-05-02T01:56:55;100333.84;;;7.68;100.00
46347;BME280;32057;47.830;19.046;2023-05-02T01:59:25;100341.09;;;7.78;100.00
46347;BME280;32057;47.830;19.046;2023-05-02T02:01:53;100335.38;;;7.89;100.00
46347;BME280;32057;47.830;19.046;2023-05-02T02:04:20;100344.09;;;7.91;100.00
46347;BME280;32057;47.830;19.046;2023-05-02T02:07:02;100336.31;;;7.91;100.00
46347;BME280;32057;47.830;19.046;2023-05-02T02:09:30;100335.47;;;7.92;100.00
46347;BME280;32057;47.830;19.046;2023-05-02T02:12:15;100332.88;;;7.92;100.00
46347;BME280;32057;47.830;19.046;2023-05-02T02:14:56;100329.53;;;7.96;100.00
46347;BME280;32057;47.830;19.046;2023-05-02T02:17:36;100326.72;;;7.88;100.00
46347;BME280;32057;47.830;19.046;2023-05-02T02:20:04;100321.34;;;7.82;100.00
46347;BME280;32057;47.830;19.046;2023-05-02T02:22:36;100330.78;;;7.80;100.00
46347;BME280;32057;47.830;19.046;2023-05-02T02:25:05;100327.13;;;7.73;100.00
46347;BME280;32057;47.830;19.046;2023-05-02T02:27:32;100333.97;;;7.71;100.00
46347;BME280;32057;47.830;19.046;2023-05-02T02:29:58;100329.22;;;7.58;100.00
46347;BME280;32057;47.830;19.046;2023-05-02T02:32:23;100326.00;;;7.65;100.00
46347;BME280;32057;47.830;19.046;2023-05-02T02:34:49;100328.06;;;7.75;100.00
46347;BME280;32057;47.830;19.046;2023-05-02T02:37:30;100330.66;;;7.75;100.00
46347;BME280;32057;47.830;19.046;2023-05-02T02:46:01;100316.97;;;7.80;100.00
46347;BME280;32057;47.830;19.046;2023-05-02T02:49:20;100317.69;;;7.75;100.00
46347;BME280;32057;47.830;19.046;2023-05-02T02:51:31;100319.25;;;7.70;100.00
46347;BME280;32057;47.830;19.046;2023-05-02T02:56:47;100322.75;;;7.72;100.00
46347;BME280;32057;47.830;19.046;2023-05-02T03:01:43;100325.03;;;7.89;100.00
46347;BME280;32057;47.830;19.046;2023-05-02T03:04:12;100325.94;;;7.91;100.00
46347;BME280;32057;47.830;19.046;2023-05-02T03:06:40;100325.09;;;7.92;100.00
46347;BME280;32057;47.830;19.046;2023-05-02T03:09:13;100325.41;;;8.01;100.00
46347;BME280;32057;47.830;19.046;2023-05-02T03:11:39;100326.31;;;8.03;100.00
46347;BME280;32057;47.830;19.046;2023-05-02T03:14:05;100327.13;;;8.02;100.00
46347;BME280;32057;47.830;19.046;2023-05-02T03:16:34;100331.28;;;7.95;100.00
46347;BME280;32057;47.830;19.046;2023-05-02T03:19:01;100324.38;;;7.96;100.00
46347;BME280;32057;47.830;19.046;2023-05-02T03:21:27;100331.50;;;8.03;100.00
46347;BME280;32057;47.830;19.046;2023-05-02T03:23:53;100329.72;;;8.02;100.00
46347;BME280;32057;47.830;19.046;2023-05-02T03:26:19;100327.06;;;7.99;100.00
46347;BME280;32057;47.830;19.046;2023-05-02T03:28:45;100327.81;;;7.95;100.00
46347;BME280;32057;47.830;19.046;2023-05-02T03:31:14;100329.25;;;7.87;100.00
46347;BME280;32057;47.830;19.046;2023-05-02T03:33:40;100328.50;;;7.89;100.00
46347;BME280;32057;47.830;19.046;2023-05-02T03:36:05;100331.16;;;7.92;100.00
46347;BME280;32057;47.830;19.046;2023-05-02T03:38:31;100334.72;;;7.96;100.00
46347;BME280;32057;47.830;19.046;2023-05-02T03:40:56;100347.88;;;8.02;100.00
46347;BME280;32057;47.830;19.046;2023-05-02T03:43:22;100348.03;;;8.07;100.00
46347;BME280;32057;47.830;19.046;2023-05-02T03:45:48;100348.16;;;8.11;100.00
46347;BME280;32057;47.830;19.046;2023-05-02T03:48:13;100344.91;;;8.18;100.00
46347;BME280;32057;47.830;19.046;2023-05-02T03:50:38;100347.72;;;8.26;100.00
46347;BME280;32057;47.830;19.046;2023-05-02T03:53:06;100354.47;;;8.20;100.00
46347;BME280;32057;47.830;19.046;2023-05-02T03:55:43;100354.47;;;8.20;100.00
46347;BME280;32057;47.830;19.046;2023-05-02T03:58:10;100360.28;;;8.12;100.00
46347;BME280;32057;47.830;19.046;2023-05-02T04:00:35;100358.72;;;8.17;100.00
46347;BME280;32057;47.830;19.046;2023-05-02T04:03:02;100357.06;;;8.20;100.00
46347;BME280;32057;47.830;19.046;2023-05-02T04:05:30;100357.34;;;8.29;100.00
46347;BME280;32057;47.830;19.046;2023-05-02T04:07:55;100354.75;;;8.29;100.00
46347;BME280;32057;47.830;19.046;2023-05-02T04:10:21;100356.41;;;8.27;100.00
46347;BME280;32057;47.830;19.046;2023-05-02T04:12:46;100355.38;;;8.22;100.00
46347;BME280;32057;47.830;19.046;2023-05-02T04:15:12;100362.06;;;8.13;100.00
46347;BME280;32057;47.830;19.046;2023-05-02T04:17:37;100361.94;;;8.10;100.00
46347;BME280;32057;47.830;19.046;2023-05-02T04:20:04;100362.13;;;8.16;100.00
46347;BME280;32057;47.830;19.046;2023-05-02T04:22:30;100361.44;;;8.22;100.00
46347;BME280;32057;47.830;19.046;2023-05-02T04:24:56;100359.88;;;8.27;100.00
46347;BME280;32057;47.830;19.046;2023-05-02T04:27:21;100374.22;;;8.43;100.00
46347;BME280;32057;47.830;19.046;2023-05-02T04:29:47;100371.13;;;8.56;100.00
46347;BME280;32057;47.830;19.046;2023-05-02T04:32:13;100372.44;;;8.71;100.00
46347;BME280;32057;47.830;19.046;2023-05-02T04:34:39;100373.69;;;8.85;100.00
46347;BME280;32057;47.830;19.046;2023-05-02T04:37:07;100378.34;;;8.98;100.00
46347;BME280;32057;47.830;19.046;2023-05-02T04:39:33;100375.09;;;9.06;100.00
46347;BME280;32057;47.830;19.046;2023-05-02T04:41:58;100383.91;;;9.11;100.00
46347;BME280;32057;47.830;19.046;2023-05-02T04:44:24;100375.38;;;9.15;100.00
46347;BME280;32057;47.830;19.046;2023-05-02T04:46:50;100380.16;;;9.33;100.00
46347;BME280;32057;47.830;19.046;2023-05-02T04:49:15;100378.56;;;9.38;100.00
46347;BME280;32057;47.830;19.046;2023-05-02T04:51:44;100379.44;;;9.39;100.00
46347;BME280;32057;47.830;19.046;2023-05-02T04:54:13;100376.75;;;9.35;100.00
46347;BME280;32057;47.830;19.046;2023-05-02T04:56:38;100383.13;;;9.47;100.00
46347;BME280;32057;47.830;19.046;2023-05-02T04:59:07;100372.22;;;9.62;100.00
46347;BME280;32057;47.830;19.046;2023-05-02T05:01:32;100376.16;;;9.81;100.00
46347;BME280;32057;47.830;19.046;2023-05-02T05:03:58;100374.13;;;10.05;100.00
46347;BME280;32057;47.830;19.046;2023-05-02T05:06:23;100377.22;;;10.27;100.00
46347;BME280;32057;47.830;19.046;2023-05-02T05:08:48;100375.88;;;10.43;100.00
46347;BME280;32057;47.830;19.046;2023-05-02T05:11:15;100371.94;;;10.62;100.00
46347;BME280;32057;47.830;19.046;2023-05-02T05:13:40;100376.66;;;10.81;100.00
46347;BME280;32057;47.830;19.046;2023-05-02T05:16:07;100378.75;;;10.99;99.21
46347;BME280;32057;47.830;19.046;2023-05-02T05:18:32;100372.13;;;11.15;99.87
46347;BME280;32057;47.830;19.046;2023-05-02T05:21:08;100376.81;;;11.34;97.96
46347;BME280;32057;47.830;19.046;2023-05-02T05:23:34;100377.97;;;11.50;96.75
46347;BME280;32057;47.830;19.046;2023-05-02T05:26:10;100374.91;;;11.74;91.60
46347;BME280;32057;47.830;19.046;2023-05-02T05:28:36;100379.56;;;11.94;93.18
46347;BME280;32057;47.830;19.046;2023-05-02T05:31:09;100380.66;;;12.10;92.61
46347;BME280;32057;47.830;19.046;2023-05-02T05:33:36;100387.88;;;12.28;89.03
46347;BME280;32057;47.830;19.046;2023-05-02T05:36:06;100381.22;;;12.48;89.52
46347;BME280;32057;47.830;19.046;2023-05-02T05:38:32;100384.97;;;12.69;86.97
46347;BME280;32057;47.830;19.046;2023-05-02T05:40:58;100385.22;;;12.90;83.78
46347;BME280;32057;47.830;19.046;2023-05-02T05:43:23;100385.56;;;13.21;78.96
46347;BME280;32057;47.830;19.046;2023-05-02T05:45:54;100385.00;;;13.48;80.54
46347;BME280;32057;47.830;19.046;2023-05-02T05:48:20;100390.41;;;13.68;77.89
46347;BME280;32057;47.830;19.046;2023-05-02T05:50:46;100393.13;;;13.84;78.32
46347;BME280;32057;47.830;19.046;2023-05-02T05:53:12;100387.22;;;14.06;80.14
46347;BME280;32057;47.830;19.046;2023-05-02T05:55:38;100382.91;;;14.14;76.50
46347;BME280;32057;47.830;19.046;2023-05-02T05:58:04;100386.47;;;14.29;74.26
46347;BME280;32057;47.830;19.046;2023-05-02T06:00:30;100390.06;;;14.45;75.08
46347;BME280;32057;47.830;19.046;2023-05-02T06:02:58;100396.25;;;14.58;72.44
46347;BME280;32057;47.830;19.046;2023-05-02T06:05:23;100392.81;;;14.65;76.98
46347;BME280;32057;47.830;19.046;2023-05-02T06:07:49;100398.97;;;14.79;74.72
46347;BME280;32057;47.830;19.046;2023-05-02T06:10:14;100390.31;;;14.96;75.89
46347;BME280;32057;47.830;19.046;2023-05-02T06:12:42;100398.22;;;15.11;78.94
46347;BME280;32057;47.830;19.046;2023-05-02T06:15:08;100399.16;;;15.33;76.04
46347;BME280;32057;47.830;19.046;2023-05-02T06:17:34;100392.19;;;15.47;75.67
46347;BME280;32057;47.830;19.046;2023-05-02T06:19:59;100390.44;;;15.57;76.32
46347;BME280;32057;47.830;19.046;2023-05-02T06:22:25;100393.97;;;15.70;78.12
46347;BME280;32057;47.830;19.046;2023-05-02T06:24:50;100394.88;;;15.86;78.82
46347;BME280;32057;47.830;19.046;2023-05-02T06:27:19;100382.63;;;15.96;79.55
46347;BME280;32057;47.830;19.046;2023-05-02T06:29:44;100389.59;;;16.01;79.04
46347;BME280;32057;47.830;19.046;2023-05-02T06:32:10;100391.34;;;16.15;77.68
46347;BME280;32057;47.830;19.046;2023-05-02T06:34:35;100386.06;;;16.19;76.53
46347;BME280;32057;47.830;19.046;2023-05-02T06:37:01;100401.81;;;16.33;75.59
46347;BME280;32057;47.830;19.046;2023-05-02T06:39:26;100394.75;;;16.47;76.27
46347;BME280;32057;47.830;19.046;2023-05-02T06:41:57;100398.25;;;16.62;71.22
46347;BME280;32057;47.830;19.046;2023-05-02T06:44:23;100391.19;;;16.78;70.97
46347;BME280;32057;47.830;19.046;2023-05-02T06:46:48;100394.63;;;17.00;66.73
46347;BME280;32057;47.830;19.046;2023-05-02T06:49:14;100399.78;;;17.17;66.13
46347;BME280;32057;47.830;19.046;2023-05-02T06:51:40;100401.38;;;17.41;71.43
46347;BME280;32057;47.830;19.046;2023-05-02T06:54:05;100401.28;;;17.53;63.34
46347;BME280;32057;47.830;19.046;2023-05-02T06:56:31;100399.44;;;17.67;62.03
46347;BME280;32057;47.830;19.046;2023-05-02T06:58:56;100402.91;;;17.74;58.39
46347;BME280;32057;47.830;19.046;2023-05-02T07:01:22;100399.34;;;17.75;60.34
46347;BME280;32057;47.830;19.046;2023-05-02T07:03:47;100404.59;;;17.86;60.28
46347;BME280;32057;47.830;19.046;2023-05-02T07:06:13;100403.69;;;17.87;57.19
46347;BME280;32057;47.830;19.046;2023-05-02T07:08:38;100401.00;;;17.96;56.44
46347;BME280;32057;47.830;19.046;2023-05-02T07:11:04;100398.22;;;18.10;56.71
46347;BME280;32057;47.830;19.046;2023-05-02T07:13:29;100398.13;;;18.19;58.17
46347;BME280;32057;47.830;19.046;2023-05-02T07:15:55;100400.66;;;18.30;55.95
46347;BME280;32057;47.830;19.046;2023-05-02T07:18:21;100405.00;;;18.34;57.30
46347;BME280;32057;47.830;19.046;2023-05-02T07:20:46;100405.72;;;18.51;56.79
46347;BME280;32057;47.830;19.046;2023-05-02T07:23:12;100400.31;;;18.64;59.09
46347;BME280;32057;47.830;19.046;2023-05-02T07:25:37;100398.38;;;18.75;56.71
46347;BME280;32057;47.830;19.046;2023-05-02T07:28:04;100393.94;;;18.79;61.29
46347;BME280;32057;47.830;19.046;2023-05-02T07:30:30;100393.94;;;18.83;56.53
46347;BME280;32057;47.830;19.046;2023-05-02T07:32:55;100391.47;;;18.68;59.79
46347;BME280;32057;47.830;19.046;2023-05-02T07:35:20;100394.94;;;18.71;58.20
46347;BME280;32057;47.830;19.046;2023-05-02T07:37:46;100391.38;;;18.77;60.97
46347;BME280;32057;47.830;19.046;2023-05-02T07:40:11;100392.31;;;18.70;59.20
46347;BME280;32057;47.830;19.046;2023-05-02T07:42:37;100394.19;;;18.62;55.78
46347;BME280;32057;47.830;19.046;2023-05-02T07:45:03;100393.28;;;18.63;60.83
46347;BME280;32057;47.830;19.046;2023-05-02T07:47:29;100390.44;;;18.78;57.77
46347;BME280;32057;47.830;19.046;2023-05-02T07:49:55;100391.25;;;18.89;54.93
46347;BME280;32057;47.830;19.046;2023-05-02T07:52:21;100393.78;;;18.97;59.61
46347;BME280;32057;47.830;19.046;2023-05-02T07:54:47;100399.00;;;18.99;55.70
46347;BME280;32057;47.830;19.046;2023-05-02T07:57:13;100396.19;;;19.11;54.81
46347;BME280;32057;47.830;19.046;2023-05-02T07:59:39;100397.88;;;19.18;58.25
46347;BME280;32057;47.830;19.046;2023-05-02T08:02:04;100393.34;;;19.28;56.92
46347;BME280;32057;47.830;19.046;2023-05-02T08:04:30;100385.31;;;19.36;55.71
46347;BME280;32057;47.830;19.046;2023-05-02T08:06:55;100395.88;;;19.36;53.73
46347;BME280;32057;47.830;19.046;2023-05-02T08:09:21;100385.13;;;19.48;56.05
46347;BME280;32057;47.830;19.046;2023-05-02T08:11:46;100389.44;;;19.54;60.64
46347;BME280;32057;47.830;19.046;2023-05-02T08:14:12;100383.16;;;19.61;54.66
46347;BME280;32057;47.830;19.046;2023-05-02T08:16:37;100376.91;;;19.68;60.62
46347;BME280;32057;47.830;19.046;2023-05-02T08:19:03;100377.75;;;19.70;61.94
46347;BME280;32057;47.830;19.046;2023-05-02T08:21:28;100392.69;;;19.73;53.60
46347;BME280;32057;47.830;19.046;2023-05-02T08:23:58;100401.63;;;19.61;59.83
46347;BME280;32057;47.830;19.046;2023-05-02T08:26:24;100397.16;;;19.67;58.90
46347;BME280;32057;47.830;19.046;2023-05-02T08:28:53;100395.09;;;19.85;54.40
46347;BME280;32057;47.830;19.046;2023-05-02T08:31:19;100386.22;;;19.90;54.50
46347;BME280;32057;47.830;19.046;2023-05-02T08:33:45;100393.13;;;19.99;57.47
46347;BME280;32057;47.830;19.046;2023-05-02T08:36:15;100390.88;;;20.26;54.71
46347;BME280;32057;47.830;19.046;2023-05-02T08:38:44;100392.56;;;20.30;54.21
46347;BME280;32057;47.830;19.046;2023-05-02T08:41:14;100393.41;;;20.32;55.60
46347;BME280;32057;47.830;19.046;2023-05-02T08:43:42;100389.94;;;20.28;52.25
46347;BME280;32057;47.830;19.046;2023-05-02T08:46:10;100393.66;;;20.18;52.86
46347;BME280;32057;47.830;19.046;2023-05-02T08:48:38;100394.38;;;20.28;52.58
46347;BME280;32057;47.830;19.046;2023-05-02T08:51:08;100393.41;;;20.32;55.58
46347;BME280;32057;47.830;19.046;2023-05-02T08:53:34;100387.13;;;20.39;53.19
46347;BME280;32057;47.830;19.046;2023-05-02T08:56:00;100392.31;;;20.42;55.83
46347;BME280;32057;47.830;19.046;2023-05-02T08:58:25;100384.50;;;20.38;52.77
46347;BME280;32057;47.830;19.046;2023-05-02T09:00:52;100387.88;;;20.44;53.86
46347;BME280;32057;47.830;19.046;2023-05-02T09:05:53;100385.47;;;20.32;53.96
46347;BME280;32057;47.830;19.046;2023-05-02T09:08:23;100387.97;;;20.41;51.90
46347;BME280;32057;47.830;19.046;2023-05-02T09:10:49;100377.16;;;20.52;57.06
46347;BME280;32057;47.830;19.046;2023-05-02T09:13:31;100380.25;;;20.76;54.57
46347;BME280;32057;47.830;19.046;2023-05-02T09:18:36;100378.72;;;20.64;56.68
46347;BME280;32057;47.830;19.046;2023-05-02T09:21:09;100381.59;;;20.52;51.99
46347;BME280;32057;47.830;19.046;2023-05-02T09:23:43;100381.25;;;20.70;52.45
46347;BME280;32057;47.830;19.046;2023-05-02T09:26:19;100379.84;;;20.94;52.08
46347;BME280;32057;47.830;19.046;2023-05-02T09:28:53;100382.88;;;21.16;57.37
46347;BME280;32057;47.830;19.046;2023-05-02T09:31:20;100385.91;;;21.38;54.64
46347;BME280;32057;47.830;19.046;2023-05-02T09:33:46;100379.66;;;21.44;49.13
46347;BME280;32057;47.830;19.046;2023-05-02T09:36:14;100383.97;;;21.48;52.55
46347;BME280;32057;47.830;19.046;2023-05-02T09:38:44;100383.97;;;21.48;52.63
46347;BME280;32057;47.830;19.046;2023-05-02T09:41:10;100381.06;;;21.59;56.07
46347;BME280;32057;47.830;19.046;2023-05-02T09:43:36;100367.78;;;21.60;51.65
46347;BME280;32057;47.830;19.046;2023-05-02T09:46:06;100376.53;;;21.64;50.58
46347;BME280;32057;47.830;19.046;2023-05-02T09:48:50;100365.06;;;21.63;47.97
46347;BME280;32057;47.830;19.046;2023-05-02T09:51:17;100369.72;;;21.54;52.07
46347;BME280;32057;47.830;19.046;2023-05-02T09:53:43;100369.72;;;21.54;50.41
46347;BME280;32057;47.830;19.046;2023-05-02T09:56:09;100362.78;;;21.48;51.88
46347;BME280;32057;47.830;19.046;2023-05-02T09:58:35;100366.94;;;21.21;50.82
46347;BME280;32057;47.830;19.046;2023-05-02T10:01:00;100369.59;;;21.19;47.73
46347;BME280;32057;47.830;19.046;2023-05-02T10:03:27;100363.56;;;21.13;51.19
46347;BME280;32057;47.830;19.046;2023-05-02T10:05:53;100364.94;;;20.92;50.59
46347;BME280;32057;47.830;19.046;2023-05-02T10:08:20;100361.00;;;20.69;53.46
46347;BME280;32057;47.830;19.046;2023-05-02T10:10:53;100366.81;;;20.41;54.66
46347;BME280;32057;47.830;19.046;2023-05-02T10:13:21;100362.50;;;20.36;54.01
46347;BME280;32057;47.830;19.046;2023-05-02T10:15:58;100359.06;;;20.32;53.67
46347;BME280;32057;47.830;19.046;2023-05-02T10:20:58;100366.03;;;20.36;55.46
46347;BME280;32057;47.830;19.046;2023-05-02T10:23:33;100359.88;;;20.36;56.38
46347;BME280;32057;47.830;19.046;2023-05-02T10:25:58;100357.84;;;20.48;58.60
46347;BME280;32057;47.830;19.046;2023-05-02T10:28:27;100366.31;;;20.67;54.81
46347;BME280;32057;47.830;19.046;2023-05-02T10:30:54;100350.06;;;20.84;56.05
46347;BME280;32057;47.830;19.046;2023-05-02T10:33:21;100348.19;;;20.91;59.63
46347;BME280;32057;47.830;19.046;2023-05-02T10:35:46;100348.06;;;20.97;55.21
46347;BME280;32057;47.830;19.046;2023-05-02T10:38:20;100348.00;;;20.99;51.29
46347;BME280;32057;47.830;19.046;2023-05-02T10:40:52;100347.88;;;21.05;50.53
46347;BME280;32057;47.830;19.046;2023-05-02T10:43:22;100347.34;;;20.89;59.35
46347;BME280;32057;47.830;19.046;2023-05-02T10:45:48;100344.75;;;20.86;55.14
46347;BME280;32057;47.830;19.046;2023-05-02T10:48:23;100348.97;;;20.95;50.91
46347;BME280;32057;47.830;19.046;2023-05-02T10:50:56;100349.88;;;20.94;52.30
46347;BME280;32057;47.830;19.046;2023-05-02T10:53:26;100347.16;;;20.97;55.47
46347;BME280;32057;47.830;19.046;2023-05-02T10:56:20;100350.91;;;20.86;56.99
46347;BME280;32057;47.830;19.046;2023-05-02T10:59:25;100346.59;;;20.82;52.75
46347;BME280;32057;47.830;19.046;2023-05-02T11:01:38;100345.03;;;20.74;56.57
46347;BME280;32057;47.830;19.046;2023-05-02T11:04:08;100357.19;;;20.82;57.51
46347;BME280;32057;47.830;19.046;2023-05-02T11:06:37;100354.25;;;20.95;49.93
46347;BME280;32057;47.830;19.046;2023-05-02T11:11:47;100341.75;;;21.03;54.29
46347;BME280;32057;47.830;19.046;2023-05-02T11:24:46;100335.16;;;21.58;60.71
46347;BME280;32057;47.830;19.046;2023-05-02T11:27:39;100327.22;;;21.93;53.63
46347;BME280;32057;47.830;19.046;2023-05-02T11:30:06;100331.16;;;22.11;50.83
46347;BME280;32057;47.830;19.046;2023-05-02T11:35:22;100336.78;;;22.62;52.30
46347;BME280;32057;47.830;19.046;2023-05-02T11:38:03;100328.19;;;22.54;55.19
46347;BME280;32057;47.830;19.046;2023-05-02T11:40:30;100325.50;;;22.56;53.79
46347;BME280;32057;47.830;19.046;2023-05-02T11:42:57;100330.38;;;22.71;55.25
46347;BME280;32057;47.830;19.046;2023-05-02T11:45:36;100324.47;;;22.61;54.86
46347;BME280;32057;47.830;19.046;2023-05-02T11:48:05;100323.09;;;22.78;53.97
46347;BME280;32057;47.830;19.046;2023-05-02T11:50:32;100318.81;;;22.72;53.53
46347;BME280;32057;47.830;19.046;2023-05-02T11:52:58;100307.56;;;22.64;51.85
46347;BME280;32057;47.830;19.046;2023-05-02T11:55:23;100322.41;;;22.71;49.15
46347;BME280;32057;47.830;19.046;2023-05-02T11:57:49;100324.41;;;22.93;47.82
46347;BME280;32057;47.830;19.046;2023-05-02T12:00:14;100319.00;;;22.96;49.39
46347;BME280;32057;47.830;19.046;2023-05-02T12:02:42;100307.69;;;22.91;46.21
46347;BME280;32057;47.830;19.046;2023-05-02T12:05:09;100317.00;;;23.04;50.13
46347;BME280;32057;47.830;19.046;2023-05-02T12:07:39;100315.13;;;22.78;48.67
46347;BME280;32057;47.830;19.046;2023-05-02T12:10:06;100318.59;;;22.50;51.01
46347;BME280;32057;47.830;19.046;2023-05-02T12:12:32;100320.19;;;22.24;48.41
46347;BME280;32057;47.830;19.046;2023-05-02T12:14:57;100319.50;;;22.16;48.87
46347;BME280;32057;47.830;19.046;2023-05-02T12:17:23;100303.69;;;22.15;48.92
46347;BME280;32057;47.830;19.046;2023-05-02T12:19:50;100304.28;;;22.24;49.48
46347;BME280;32057;47.830;19.046;2023-05-02T12:22:16;100300.66;;;22.28;48.20
46347;BME280;32057;47.830;19.046;2023-05-02T12:24:42;100296.97;;;22.34;50.56
46347;BME280;32057;47.830;19.046;2023-05-02T12:27:12;100291.00;;;22.26;49.83
46347;BME280;32057;47.830;19.046;2023-05-02T12:29:46;100298.06;;;22.27;49.92
46347;BME280;32057;47.830;19.046;2023-05-02T12:32:12;100292.91;;;22.21;50.85
46347;BME280;32057;47.830;19.046;2023-05-02T12:34:39;100290.47;;;22.13;48.67
46347;BME280;32057;47.830;19.046;2023-05-02T12:37:05;100287.19;;;22.03;46.33
46347;BME280;32057;47.830;19.046;2023-05-02T12:39:37;100289.75;;;22.06;48.62
46347;BME280;32057;47.830;19.046;2023-05-02T12:42:10;100281.63;;;22.13;49.29
46347;BME280;32057;47.830;19.046;2023-05-02T12:44:40;100283.34;;;22.15;48.01
46347;BME280;32057;47.830;19.046;2023-05-02T12:47:07;100289.50;;;22.16;52.66
46347;BME280;32057;47.830;19.046;2023-05-02T12:49:46;100282.78;;;22.02;53.48
46347;BME280;32057;47.830;19.046;2023-05-02T12:52:12;100281.78;;;22.06;51.89
46347;BME280;32057;47.830;19.046;2023-05-02T12:54:37;100291.56;;;22.04;48.29
46347;BME280;32057;47.830;19.046;2023-05-02T12:57:03;100281.09;;;22.00;55.54
46347;BME280;32057;47.830;19.046;2023-05-02T12:59:32;100279.59;;;21.91;52.80
46347;BME280;32057;47.830;19.046;2023-05-02T13:01:58;100279.66;;;21.88;54.52
46347;BME280;32057;47.830;19.046;2023-05-02T13:04:38;100270.09;;;21.82;52.81
46347;BME280;32057;47.830;19.046;2023-05-02T13:07:04;100265.69;;;21.83;56.09
46347;BME280;32057;47.830;19.046;2023-05-02T13:09:30;100263.81;;;21.86;55.03
46347;BME280;32057;47.830;19.046;2023-05-02T13:11:56;100262.88;;;21.89;51.05
46347;BME280;32057;47.830;19.046;2023-05-02T13:14:23;100267.16;;;21.93;50.06
46347;BME280;32057;47.830;19.046;2023-05-02T13:16:48;100265.50;;;21.89;52.04
46347;BME280;32057;47.830;19.046;2023-05-02T13:19:17;100264.72;;;21.85;52.55
46347;BME280;32057;47.830;19.046;2023-05-02T13:21:43;100264.03;;;21.79;53.71
46347;BME280;32057;47.830;19.046;2023-05-02T13:24:08;100267.91;;;21.65;55.37
46347;BME280;32057;47.830;19.046;2023-05-02T13:26:34;100264.94;;;21.42;53.88
46347;BME280;32057;47.830;19.046;2023-05-02T13:28:59;100263.34;;;21.35;52.12